sensor_id;sensor_type;location;lat;lon;timestamp;P1;durP1;ratioP1;P2;durP2;ratioP2
72920;SDS011;61064;51.654;5.476;2024-01-15T00:00:12;6.33;;;1.43;;
72920;SDS011;61064;51.654;5.476;2024-01-15T00:02:38;5.50;;;1.00;;
72920;SDS011;61064;51.654;5.476;2024-01-15T00:05:04;4.33;;;1.27;;
72920;SDS011;61064;51.654;5.476;2024-01-15T00:07:29;5.80;;;1.30;;
72920;SDS011;61064;51.654;5.476;2024-01-15T00:09:55;6.37;;;1.30;;
72920;SDS011;61064;51.654;5.476;2024-01-15T00:12:20;5.07;;;1.30;;
72920;SDS011;61064;51.654;5.476;2024-01-15T00:14:46;6.53;;;1.50;;
72920;SDS011;61064;51.654;5.476;2024-01-15T00:17:11;7.73;;;1.57;;
72920;SDS011;61064;51.654;5.476;2024-01-15T00:19:36;6.40;;;1.57;;
72920;SDS011;61064;51.654;5.476;2024-01-15T00:22:02;6.05;;;1.60;;
72920;SDS011;61064;51.654;5.476;2024-01-15T00:24:28;5.88;;;1.63;;
72920;SDS011;61064;51.654;5.476;2024-01-15T00:26:53;5.45;;;1.48;;
72920;SDS011;61064;51.654;5.476;2024-01-15T00:29:19;5.87;;;1.50;;
72920;SDS011;61064;51.654;5.476;2024-01-15T00:31:44;8.33;;;1.70;;
72920;SDS011;61064;51.654;5.476;2024-01-15T00:34:09;5.73;;;1.60;;
72920;SDS011;61064;51.654;5.476;2024-01-15T00:36:35;5.53;;;1.50;;
72920;SDS011;61064;51.654;5.476;2024-01-15T00:39:01;5.72;;;1.38;;
72920;SDS011;61064;51.654;5.476;2024-01-15T00:41:26;5.07;;;1.40;;
72920;SDS011;61064;51.654;5.476;2024-01-15T00:43:52;5.28;;;1.50;;
72920;SDS011;61064;51.654;5.476;2024-01-15T00:46:18;4.20;;;1.40;;
72920;SDS011;61064;51.654;5.476;2024-01-15T00:48:43;6.25;;;1.40;;
72920;SDS011;61064;51.654;5.476;2024-01-15T00:51:10;6.93;;;1.40;;
72920;SDS011;61064;51.654;5.476;2024-01-15T00:53:35;6.40;;;1.50;;
72920;SDS011;61064;51.654;5.476;2024-01-15T00:56:00;9.37;;;1.60;;
72920;SDS011;61064;51.654;5.476;2024-01-15T00:58:26;5.97;;;1.35;;
72920;SDS011;61064;51.654;5.476;2024-01-15T01:00:52;10.90;;;1.42;;
72920;SDS011;61064;51.654;5.476;2024-01-15T01:03:17;7.23;;;1.40;;
72920;SDS011;61064;51.654;5.476;2024-01-15T01:05:48;6.07;;;1.40;;
72920;SDS011;61064;51.654;5.476;2024-01-15T01:08:15;7.90;;;1.48;;
72920;SDS011;61064;51.654;5.476;2024-01-15T01:10:40;7.80;;;1.30;;
72920;SDS011;61064;51.654;5.476;2024-01-15T01:13:07;5.00;;;1.35;;
72920;SDS011;61064;51.654;5.476;2024-01-15T01:15:33;6.30;;;1.40;;
72920;SDS011;61064;51.654;5.476;2024-01-15T01:17:59;7.00;;;1.30;;
72920;SDS011;61064;51.654;5.476;2024-01-15T01:20:24;8.20;;;1.10;;
72920;SDS011;61064;51.654;5.476;2024-01-15T01:22:49;7.23;;;1.90;;
72920;SDS011;61064;51.654;5.476;2024-01-15T01:25:15;10.15;;;1.25;;
72920;SDS011;61064;51.654;5.476;2024-01-15T01:27:40;5.20;;;1.07;;
72920;SDS011;61064;51.654;5.476;2024-01-15T01:30:06;10.77;;;1.40;;
72920;SDS011;61064;51.654;5.476;2024-01-15T01:32:31;7.47;;;1.38;;
72920;SDS011;61064;51.654;5.476;2024-01-15T01:34:57;5.67;;;1.20;;
72920;SDS011;61064;51.654;5.476;2024-01-15T01:37:22;8.10;;;1.20;;
72920;SDS011;61064;51.654;5.476;2024-01-15T01:39:48;7.17;;;1.20;;
72920;SDS011;61064;51.654;5.476;2024-01-15T01:42:13;8.07;;;1.00;;
72920;SDS011;61064;51.654;5.476;2024-01-15T01:44:39;8.17;;;1.20;;
72920;SDS011;61064;51.654;5.476;2024-01-15T01:47:04;5.23;;;0.80;;
72920;SDS011;61064;51.654;5.476;2024-01-15T01:49:30;8.88;;;1.02;;
72920;SDS011;61064;51.654;5.476;2024-01-15T01:51:57;6.57;;;1.02;;
72920;SDS011;61064;51.654;5.476;2024-01-15T01:54:24;6.23;;;0.97;;
72920;SDS011;61064;51.654;5.476;2024-01-15T01:56:51;4.97;;;0.70;;
72920;SDS011;61064;51.654;5.476;2024-01-15T01:59:17;6.55;;;1.10;;
72920;SDS011;61064;51.654;5.476;2024-01-15T02:01:43;7.57;;;0.80;;
72920;SDS011;61064;51.654;5.476;2024-01-15T02:04:10;5.30;;;0.80;;
72920;SDS011;61064;51.654;5.476;2024-01-15T02:06:36;9.68;;;0.93;;
72920;SDS011;61064;51.654;5.476;2024-01-15T02:09:01;8.97;;;1.30;;
72920;SDS011;61064;51.654;5.476;2024-01-15T02:11:30;6.15;;;0.82;;
72920;SDS011;61064;51.654;5.476;2024-01-15T02:13:56;8.02;;;0.98;;
72920;SDS011;61064;51.654;5.476;2024-01-15T02:16:22;6.73;;;0.93;;
72920;SDS011;61064;51.654;5.476;2024-01-15T02:18:47;5.57;;;0.80;;
72920;SDS011;61064;51.654;5.476;2024-01-15T02:21:13;5.87;;;1.00;;
72920;SDS011;61064;51.654;5.476;2024-01-15T02:23:38;7.18;;;1.00;;
72920;SDS011;61064;51.654;5.476;2024-01-15T02:26:07;4.93;;;0.77;;
72920;SDS011;61064;51.654;5.476;2024-01-15T02:28:33;5.80;;;0.90;;
72920;SDS011;61064;51.654;5.476;2024-01-15T02:30:59;5.10;;;0.80;;
72920;SDS011;61064;51.654;5.476;2024-01-15T02:33:24;5.03;;;0.73;;
72920;SDS011;61064;51.654;5.476;2024-01-15T02:35:50;7.83;;;0.80;;
72920;SDS011;61064;51.654;5.476;2024-01-15T02:38:16;5.30;;;0.70;;
72920;SDS011;61064;51.654;5.476;2024-01-15T02:40:42;8.77;;;0.80;;
72920;SDS011;61064;51.654;5.476;2024-01-15T02:43:08;8.27;;;0.80;;
72920;SDS011;61064;51.654;5.476;2024-01-15T02:45:34;3.17;;;0.73;;
72920;SDS011;61064;51.654;5.476;2024-01-15T02:47:59;4.97;;;0.70;;
72920;SDS011;61064;51.654;5.476;2024-01-15T02:50:25;9.80;;;1.33;;
72920;SDS011;61064;51.654;5.476;2024-01-15T02:52:50;5.03;;;0.63;;
72920;SDS011;61064;51.654;5.476;2024-01-15T02:55:16;3.80;;;0.70;;
72920;SDS011;61064;51.654;5.476;2024-01-15T02:57:41;5.70;;;0.70;;
72920;SDS011;61064;51.654;5.476;2024-01-15T03:00:07;7.83;;;1.00;;
72920;SDS011;61064;51.654;5.476;2024-01-15T03:02:35;4.72;;;0.80;;
72920;SDS011;61064;51.654;5.476;2024-01-15T03:05:04;4.03;;;0.60;;
72920;SDS011;61064;51.654;5.476;2024-01-15T03:07:29;9.43;;;0.60;;
72920;SDS011;61064;51.654;5.476;2024-01-15T03:09:58;5.40;;;1.08;;
72920;SDS011;61064;51.654;5.476;2024-01-15T03:12:23;7.87;;;0.80;;
72920;SDS011;61064;51.654;5.476;2024-01-15T03:14:49;7.87;;;0.60;;
72920;SDS011;61064;51.654;5.476;2024-01-15T03:17:14;9.40;;;1.00;;
72920;SDS011;61064;51.654;5.476;2024-01-15T03:19:40;7.60;;;0.90;;
72920;SDS011;61064;51.654;5.476;2024-01-15T03:22:05;7.30;;;0.70;;
72920;SDS011;61064;51.654;5.476;2024-01-15T03:24:33;13.27;;;0.68;;
72920;SDS011;61064;51.654;5.476;2024-01-15T03:26:58;4.17;;;0.40;;
72920;SDS011;61064;51.654;5.476;2024-01-15T03:29:25;7.93;;;0.80;;
72920;SDS011;61064;51.654;5.476;2024-01-15T03:31:51;6.55;;;0.50;;
72920;SDS011;61064;51.654;5.476;2024-01-15T03:34:16;8.57;;;0.80;;
72920;SDS011;61064;51.654;5.476;2024-01-15T03:36:42;4.87;;;0.50;;
72920;SDS011;61064;51.654;5.476;2024-01-15T03:39:07;8.03;;;0.60;;
72920;SDS011;61064;51.654;5.476;2024-01-15T03:41:33;5.72;;;0.82;;
72920;SDS011;61064;51.654;5.476;2024-01-15T03:43:58;7.97;;;1.07;;
72920;SDS011;61064;51.654;5.476;2024-01-15T03:46:24;7.03;;;0.70;;
72920;SDS011;61064;51.654;5.476;2024-01-15T03:48:49;4.40;;;0.45;;
72920;SDS011;61064;51.654;5.476;2024-01-15T03:51:17;8.37;;;0.67;;
72920;SDS011;61064;51.654;5.476;2024-01-15T03:53:43;11.70;;;0.85;;
72920;SDS011;61064;51.654;5.476;2024-01-15T03:56:08;4.07;;;0.70;;
72920;SDS011;61064;51.654;5.476;2024-01-15T03:58:33;6.37;;;0.70;;
72920;SDS011;61064;51.654;5.476;2024-01-15T04:00:59;5.10;;;0.83;;
72920;SDS011;61064;51.654;5.476;2024-01-15T04:03:24;6.57;;;0.77;;
72920;SDS011;61064;51.654;5.476;2024-01-15T04:05:53;8.03;;;0.70;;
72920;SDS011;61064;51.654;5.476;2024-01-15T04:08:18;6.80;;;0.75;;
72920;SDS011;61064;51.654;5.476;2024-01-15T04:10:44;7.60;;;1.07;;
72920;SDS011;61064;51.654;5.476;2024-01-15T04:13:09;7.37;;;0.80;;
72920;SDS011;61064;51.654;5.476;2024-01-15T04:15:34;5.43;;;0.75;;
72920;SDS011;61064;51.654;5.476;2024-01-15T04:18:01;6.47;;;0.73;;
72920;SDS011;61064;51.654;5.476;2024-01-15T04:20:27;7.03;;;0.63;;
72920;SDS011;61064;51.654;5.476;2024-01-15T04:22:53;8.07;;;0.60;;
72920;SDS011;61064;51.654;5.476;2024-01-15T04:25:18;5.53;;;0.50;;
72920;SDS011;61064;51.654;5.476;2024-01-15T04:27:43;9.67;;;0.70;;
72920;SDS011;61064;51.654;5.476;2024-01-15T04:30:12;8.30;;;0.80;;
72920;SDS011;61064;51.654;5.476;2024-01-15T04:32:43;6.82;;;0.95;;
72920;SDS011;61064;51.654;5.476;2024-01-15T04:35:11;7.05;;;0.57;;
72920;SDS011;61064;51.654;5.476;2024-01-15T04:37:37;10.77;;;0.63;;
72920;SDS011;61064;51.654;5.476;2024-01-15T04:40:03;8.07;;;1.20;;
72920;SDS011;61064;51.654;5.476;2024-01-15T04:42:29;8.05;;;0.90;;
72920;SDS011;61064;51.654;5.476;2024-01-15T04:44:54;8.90;;;1.00;;
72920;SDS011;61064;51.654;5.476;2024-01-15T04:47:20;8.18;;;1.00;;
72920;SDS011;61064;51.654;5.476;2024-01-15T04:49:45;4.37;;;0.60;;
72920;SDS011;61064;51.654;5.476;2024-01-15T04:52:11;5.33;;;0.60;;
72920;SDS011;61064;51.654;5.476;2024-01-15T04:54:37;7.65;;;0.80;;
72920;SDS011;61064;51.654;5.476;2024-01-15T04:57:02;4.80;;;0.77;;
72920;SDS011;61064;51.654;5.476;2024-01-15T04:59:28;8.70;;;1.10;;
72920;SDS011;61064;51.654;5.476;2024-01-15T05:01:54;8.30;;;0.60;;
72920;SDS011;61064;51.654;5.476;2024-01-15T05:04:20;8.77;;;0.82;;
72920;SDS011;61064;51.654;5.476;2024-01-15T05:06:45;3.80;;;0.60;;
72920;SDS011;61064;51.654;5.476;2024-01-15T05:09:10;5.82;;;0.85;;
72920;SDS011;61064;51.654;5.476;2024-01-15T05:11:36;6.03;;;0.50;;
72920;SDS011;61064;51.654;5.476;2024-01-15T05:14:02;5.60;;;0.80;;
72920;SDS011;61064;51.654;5.476;2024-01-15T05:16:27;5.40;;;0.60;;
72920;SDS011;61064;51.654;5.476;2024-01-15T05:18:53;5.33;;;0.60;;
72920;SDS011;61064;51.654;5.476;2024-01-15T05:21:18;8.10;;;0.40;;
72920;SDS011;61064;51.654;5.476;2024-01-15T05:23:43;5.83;;;0.50;;
72920;SDS011;61064;51.654;5.476;2024-01-15T05:26:09;5.68;;;0.50;;
72920;SDS011;61064;51.654;5.476;2024-01-15T05:28:34;6.00;;;0.70;;
72920;SDS011;61064;51.654;5.476;2024-01-15T05:31:00;2.72;;;0.60;;
72920;SDS011;61064;51.654;5.476;2024-01-15T05:33:26;5.10;;;0.60;;
72920;SDS011;61064;51.654;5.476;2024-01-15T05:35:51;3.63;;;0.70;;
72920;SDS011;61064;51.654;5.476;2024-01-15T05:38:20;4.53;;;0.60;;
72920;SDS011;61064;51.654;5.476;2024-01-15T05:40:45;6.80;;;0.77;;
72920;SDS011;61064;51.654;5.476;2024-01-15T05:43:10;6.23;;;0.50;;
72920;SDS011;61064;51.654;5.476;2024-01-15T05:45:37;3.50;;;0.52;;
72920;SDS011;61064;51.654;5.476;2024-01-15T05:48:03;4.75;;;0.60;;
72920;SDS011;61064;51.654;5.476;2024-01-15T05:50:29;4.83;;;0.83;;
72920;SDS011;61064;51.654;5.476;2024-01-15T05:52:55;7.57;;;0.57;;
72920;SDS011;61064;51.654;5.476;2024-01-15T05:55:20;5.47;;;0.70;;
72920;SDS011;61064;51.654;5.476;2024-01-15T05:57:46;5.20;;;0.80;;
72920;SDS011;61064;51.654;5.476;2024-01-15T06:00:11;4.67;;;0.90;;
72920;SDS011;61064;51.654;5.476;2024-01-15T06:02:37;4.57;;;1.00;;
72920;SDS011;61064;51.654;5.476;2024-01-15T06:05:03;5.53;;;0.82;;
72920;SDS011;61064;51.654;5.476;2024-01-15T06:07:29;4.23;;;0.80;;
72920;SDS011;61064;51.654;5.476;2024-01-15T06:09:54;4.03;;;0.90;;
72920;SDS011;61064;51.654;5.476;2024-01-15T06:12:22;4.47;;;1.20;;
72920;SDS011;61064;51.654;5.476;2024-01-15T06:14:47;5.28;;;1.17;;
72920;SDS011;61064;51.654;5.476;2024-01-15T06:17:13;5.70;;;1.23;;
72920;SDS011;61064;51.654;5.476;2024-01-15T06:19:38;4.97;;;1.10;;
72920;SDS011;61064;51.654;5.476;2024-01-15T06:22:03;5.17;;;1.30;;
72920;SDS011;61064;51.654;5.476;2024-01-15T06:24:29;7.53;;;1.37;;
72920;SDS011;61064;51.654;5.476;2024-01-15T06:26:55;6.60;;;1.30;;
72920;SDS011;61064;51.654;5.476;2024-01-15T06:29:20;7.40;;;1.37;;
72920;SDS011;61064;51.654;5.476;2024-01-15T06:31:46;7.22;;;1.58;;
72920;SDS011;61064;51.654;5.476;2024-01-15T06:34:11;6.13;;;1.53;;
72920;SDS011;61064;51.654;5.476;2024-01-15T06:36:37;5.47;;;1.60;;
72920;SDS011;61064;51.654;5.476;2024-01-15T06:39:02;5.73;;;1.50;;
72920;SDS011;61064;51.654;5.476;2024-01-15T06:41:27;5.78;;;1.45;;
72920;SDS011;61064;51.654;5.476;2024-01-15T06:43:53;7.03;;;1.97;;
72920;SDS011;61064;51.654;5.476;2024-01-15T06:46:21;6.70;;;1.90;;
72920;SDS011;61064;51.654;5.476;2024-01-15T06:48:47;7.20;;;2.20;;
72920;SDS011;61064;51.654;5.476;2024-01-15T06:51:13;6.23;;;2.10;;
72920;SDS011;61064;51.654;5.476;2024-01-15T06:53:42;8.85;;;2.17;;
72920;SDS011;61064;51.654;5.476;2024-01-15T06:56:07;11.10;;;2.40;;
72920;SDS011;61064;51.654;5.476;2024-01-15T06:58:33;7.82;;;2.58;;
72920;SDS011;61064;51.654;5.476;2024-01-15T07:00:58;7.17;;;2.60;;
72920;SDS011;61064;51.654;5.476;2024-01-15T07:03:24;9.90;;;2.80;;
72920;SDS011;61064;51.654;5.476;2024-01-15T07:05:49;7.90;;;2.70;;
72920;SDS011;61064;51.654;5.476;2024-01-15T07:08:15;8.47;;;3.33;;
72920;SDS011;61064;51.654;5.476;2024-01-15T07:10:40;7.93;;;2.80;;
72920;SDS011;61064;51.654;5.476;2024-01-15T07:13:05;7.83;;;3.50;;
72920;SDS011;61064;51.654;5.476;2024-01-15T07:15:31;8.23;;;3.05;;
72920;SDS011;61064;51.654;5.476;2024-01-15T07:17:56;7.73;;;2.80;;
72920;SDS011;61064;51.654;5.476;2024-01-15T07:20:22;7.53;;;2.17;;
72920;SDS011;61064;51.654;5.476;2024-01-15T07:22:50;7.55;;;2.50;;
72920;SDS011;61064;51.654;5.476;2024-01-15T07:25:16;6.70;;;2.00;;
72920;SDS011;61064;51.654;5.476;2024-01-15T07:27:42;7.47;;;2.05;;
72920;SDS011;61064;51.654;5.476;2024-01-15T07:30:11;7.43;;;2.10;;
72920;SDS011;61064;51.654;5.476;2024-01-15T07:32:37;7.13;;;2.13;;
72920;SDS011;61064;51.654;5.476;2024-01-15T07:35:03;7.78;;;2.10;;
72920;SDS011;61064;51.654;5.476;2024-01-15T07:37:30;7.38;;;1.92;;
72920;SDS011;61064;51.654;5.476;2024-01-15T07:39:55;6.07;;;1.60;;
72920;SDS011;61064;51.654;5.476;2024-01-15T07:42:21;5.90;;;1.53;;
72920;SDS011;61064;51.654;5.476;2024-01-15T07:44:47;5.40;;;1.50;;
72920;SDS011;61064;51.654;5.476;2024-01-15T07:47:13;4.87;;;1.40;;
72920;SDS011;61064;51.654;5.476;2024-01-15T07:49:39;5.82;;;1.23;;
72920;SDS011;61064;51.654;5.476;2024-01-15T07:52:04;5.70;;;1.60;;
72920;SDS011;61064;51.654;5.476;2024-01-15T07:54:30;5.50;;;1.60;;
72920;SDS011;61064;51.654;5.476;2024-01-15T07:57:00;5.65;;;1.58;;
72920;SDS011;61064;51.654;5.476;2024-01-15T07:59:28;5.47;;;1.50;;
72920;SDS011;61064;51.654;5.476;2024-01-15T08:01:53;5.82;;;1.60;;
72920;SDS011;61064;51.654;5.476;2024-01-15T08:04:19;7.27;;;1.60;;
72920;SDS011;61064;51.654;5.476;2024-01-15T08:06:45;5.70;;;1.65;;
72920;SDS011;61064;51.654;5.476;2024-01-15T08:09:11;5.15;;;1.45;;
72920;SDS011;61064;51.654;5.476;2024-01-15T08:11:41;5.32;;;1.60;;
72920;SDS011;61064;51.654;5.476;2024-01-15T08:14:07;4.70;;;1.40;;
72920;SDS011;61064;51.654;5.476;2024-01-15T08:16:34;5.00;;;1.63;;
72920;SDS011;61064;51.654;5.476;2024-01-15T08:19:00;4.80;;;1.70;;
72920;SDS011;61064;51.654;5.476;2024-01-15T08:21:26;4.63;;;1.50;;
72920;SDS011;61064;51.654;5.476;2024-01-15T08:23:55;5.25;;;1.65;;
72920;SDS011;61064;51.654;5.476;2024-01-15T08:26:22;5.78;;;1.83;;
72920;SDS011;61064;51.654;5.476;2024-01-15T08:28:49;6.68;;;1.80;;
72920;SDS011;61064;51.654;5.476;2024-01-15T08:31:16;5.83;;;1.60;;
72920;SDS011;61064;51.654;5.476;2024-01-15T08:33:42;5.65;;;1.73;;
72920;SDS011;61064;51.654;5.476;2024-01-15T08:36:08;4.97;;;1.50;;
72920;SDS011;61064;51.654;5.476;2024-01-15T08:38:34;4.78;;;1.50;;
72920;SDS011;61064;51.654;5.476;2024-01-15T08:41:00;6.60;;;1.90;;
72920;SDS011;61064;51.654;5.476;2024-01-15T08:43:25;5.87;;;2.00;;
72920;SDS011;61064;51.654;5.476;2024-01-15T08:45:52;6.35;;;2.22;;
72920;SDS011;61064;51.654;5.476;2024-01-15T08:48:17;7.25;;;1.98;;
72920;SDS011;61064;51.654;5.476;2024-01-15T08:50:43;5.17;;;1.37;;
72920;SDS011;61064;51.654;5.476;2024-01-15T08:53:11;5.38;;;1.80;;
72920;SDS011;61064;51.654;5.476;2024-01-15T08:55:36;5.47;;;1.80;;
72920;SDS011;61064;51.654;5.476;2024-01-15T08:58:02;6.03;;;2.10;;
72920;SDS011;61064;51.654;5.476;2024-01-15T09:00:28;7.72;;;2.88;;
72920;SDS011;61064;51.654;5.476;2024-01-15T09:02:53;7.13;;;3.25;;
72920;SDS011;61064;51.654;5.476;2024-01-15T09:05:19;8.20;;;3.30;;
72920;SDS011;61064;51.654;5.476;2024-01-15T09:07:44;7.20;;;2.80;;
72920;SDS011;61064;51.654;5.476;2024-01-15T09:10:11;7.63;;;2.70;;
72920;SDS011;61064;51.654;5.476;2024-01-15T09:12:36;8.27;;;2.83;;
72920;SDS011;61064;51.654;5.476;2024-01-15T09:15:01;7.93;;;2.50;;
72920;SDS011;61064;51.654;5.476;2024-01-15T09:17:29;6.75;;;3.20;;
72920;SDS011;61064;51.654;5.476;2024-01-15T09:19:54;7.83;;;2.80;;
72920;SDS011;61064;51.654;5.476;2024-01-15T09:22:20;6.38;;;2.70;;
72920;SDS011;61064;51.654;5.476;2024-01-15T09:24:45;7.13;;;3.07;;
72920;SDS011;61064;51.654;5.476;2024-01-15T09:27:11;8.00;;;2.80;;
72920;SDS011;61064;51.654;5.476;2024-01-15T09:29:36;8.75;;;3.20;;
72920;SDS011;61064;51.654;5.476;2024-01-15T09:32:05;8.32;;;2.80;;
72920;SDS011;61064;51.654;5.476;2024-01-15T09:34:32;7.25;;;3.08;;
72920;SDS011;61064;51.654;5.476;2024-01-15T09:36:58;8.15;;;3.03;;
72920;SDS011;61064;51.654;5.476;2024-01-15T09:39:24;7.20;;;2.50;;
72920;SDS011;61064;51.654;5.476;2024-01-15T09:41:51;8.73;;;2.20;;
72920;SDS011;61064;51.654;5.476;2024-01-15T09:44:20;6.43;;;2.30;;
72920;SDS011;61064;51.654;5.476;2024-01-15T09:46:49;8.35;;;1.75;;
72920;SDS011;61064;51.654;5.476;2024-01-15T09:49:16;6.32;;;1.30;;
72920;SDS011;61064;51.654;5.476;2024-01-15T09:51:42;8.00;;;1.95;;
72920;SDS011;61064;51.654;5.476;2024-01-15T09:54:08;5.23;;;0.90;;
72920;SDS011;61064;51.654;5.476;2024-01-15T09:56:34;8.75;;;0.82;;
72920;SDS011;61064;51.654;5.476;2024-01-15T09:59:03;8.27;;;1.27;;
72920;SDS011;61064;51.654;5.476;2024-01-15T10:01:31;4.97;;;0.70;;
72920;SDS011;61064;51.654;5.476;2024-01-15T10:03:57;8.43;;;0.70;;
72920;SDS011;61064;51.654;5.476;2024-01-15T10:06:26;6.75;;;0.63;;
72920;SDS011;61064;51.654;5.476;2024-01-15T10:08:58;8.50;;;0.65;;
72920;SDS011;61064;51.654;5.476;2024-01-15T10:11:24;8.87;;;0.80;;
72920;SDS011;61064;51.654;5.476;2024-01-15T10:13:50;6.15;;;0.60;;
72920;SDS011;61064;51.654;5.476;2024-01-15T10:16:18;5.25;;;0.50;;
72920;SDS011;61064;51.654;5.476;2024-01-15T10:18:44;6.27;;;0.60;;
72920;SDS011;61064;51.654;5.476;2024-01-15T10:21:10;5.88;;;0.70;;
72920;SDS011;61064;51.654;5.476;2024-01-15T10:23:35;5.87;;;0.73;;
72920;SDS011;61064;51.654;5.476;2024-01-15T10:26:01;6.55;;;0.70;;
72920;SDS011;61064;51.654;5.476;2024-01-15T10:28:27;4.40;;;0.43;;
72920;SDS011;61064;51.654;5.476;2024-01-15T10:30:55;5.25;;;0.80;;
72920;SDS011;61064;51.654;5.476;2024-01-15T10:33:22;5.05;;;0.73;;
72920;SDS011;61064;51.654;5.476;2024-01-15T10:35:53;5.20;;;0.50;;
72920;SDS011;61064;51.654;5.476;2024-01-15T10:38:20;4.60;;;0.60;;
72920;SDS011;61064;51.654;5.476;2024-01-15T10:40:47;7.40;;;0.90;;
72920;SDS011;61064;51.654;5.476;2024-01-15T10:43:20;7.00;;;0.60;;
72920;SDS011;61064;51.654;5.476;2024-01-15T10:45:46;6.53;;;0.75;;
72920;SDS011;61064;51.654;5.476;2024-01-15T10:48:13;5.65;;;0.40;;
72920;SDS011;61064;51.654;5.476;2024-01-15T10:50:39;4.65;;;0.30;;
72920;SDS011;61064;51.654;5.476;2024-01-15T10:53:05;3.28;;;0.40;;
72920;SDS011;61064;51.654;5.476;2024-01-15T10:55:31;4.15;;;0.50;;
72920;SDS011;61064;51.654;5.476;2024-01-15T10:57:58;4.97;;;0.90;;
72920;SDS011;61064;51.654;5.476;2024-01-15T11:00:32;6.03;;;0.93;;
72920;SDS011;61064;51.654;5.476;2024-01-15T11:02:59;5.50;;;1.02;;
72920;SDS011;61064;51.654;5.476;2024-01-15T11:05:26;8.85;;;1.35;;
72920;SDS011;61064;51.654;5.476;2024-01-15T11:07:54;5.30;;;1.20;;
72920;SDS011;61064;51.654;5.476;2024-01-15T11:13:08;4.60;;;1.20;;
72920;SDS011;61064;51.654;5.476;2024-01-15T11:15:54;5.00;;;1.20;;
72920;SDS011;61064;51.654;5.476;2024-01-15T11:18:26;8.53;;;1.40;;
72920;SDS011;61064;51.654;5.476;2024-01-15T11:23:42;7.38;;;1.80;;
72920;SDS011;61064;51.654;5.476;2024-01-15T11:26:54;6.53;;;1.40;;
72920;SDS011;61064;51.654;5.476;2024-01-15T11:29:02;5.80;;;1.25;;
72920;SDS011;61064;51.654;5.476;2024-01-15T11:34:03;10.13;;;1.25;;
72920;SDS011;61064;51.654;5.476;2024-01-15T11:41:52;5.35;;;1.10;;
72920;SDS011;61064;51.654;5.476;2024-01-15T11:44:20;6.37;;;1.00;;
72920;SDS011;61064;51.654;5.476;2024-01-15T11:46:50;8.38;;;1.15;;
72920;SDS011;61064;51.654;5.476;2024-01-15T11:49:31;7.95;;;0.80;;
72920;SDS011;61064;51.654;5.476;2024-01-15T11:52:20;5.03;;;0.80;;
72920;SDS011;61064;51.654;5.476;2024-01-15T11:54:49;4.80;;;0.60;;
72920;SDS011;61064;51.654;5.476;2024-01-15T11:57:33;3.78;;;0.50;;
72920;SDS011;61064;51.654;5.476;2024-01-15T12:00:02;4.78;;;0.50;;
72920;SDS011;61064;51.654;5.476;2024-01-15T12:02:28;4.10;;;0.30;;
72920;SDS011;61064;51.654;5.476;2024-01-15T12:04:54;3.90;;;0.60;;
72920;SDS011;61064;51.654;5.476;2024-01-15T12:07:20;2.85;;;0.43;;
72920;SDS011;61064;51.654;5.476;2024-01-15T12:09:45;3.97;;;0.40;;
72920;SDS011;61064;51.654;5.476;2024-01-15T12:12:12;6.37;;;0.63;;
72920;SDS011;61064;51.654;5.476;2024-01-15T12:14:59;2.22;;;0.50;;
72920;SDS011;61064;51.654;5.476;2024-01-15T12:17:24;3.93;;;0.43;;
72920;SDS011;61064;51.654;5.476;2024-01-15T12:19:51;4.85;;;0.52;;
72920;SDS011;61064;51.654;5.476;2024-01-15T12:22:16;4.60;;;0.70;;
72920;SDS011;61064;51.654;5.476;2024-01-15T12:24:42;3.83;;;0.90;;
72920;SDS011;61064;51.654;5.476;2024-01-15T12:27:07;5.07;;;0.83;;
72920;SDS011;61064;51.654;5.476;2024-01-15T12:29:37;6.13;;;0.90;;
72920;SDS011;61064;51.654;5.476;2024-01-15T12:32:04;4.13;;;0.80;;
72920;SDS011;61064;51.654;5.476;2024-01-15T12:34:31;4.00;;;1.00;;
72920;SDS011;61064;51.654;5.476;2024-01-15T12:36:57;5.95;;;1.20;;
72920;SDS011;61064;51.654;5.476;2024-01-15T12:39:24;4.35;;;1.00;;
72920;SDS011;61064;51.654;5.476;2024-01-15T12:41:50;4.20;;;1.10;;
72920;SDS011;61064;51.654;5.476;2024-01-15T12:44:16;8.60;;;1.30;;
72920;SDS011;61064;51.654;5.476;2024-01-15T12:46:41;5.63;;;1.27;;
72920;SDS011;61064;51.654;5.476;2024-01-15T12:49:08;4.00;;;1.10;;
72920;SDS011;61064;51.654;5.476;2024-01-15T12:51:36;4.17;;;0.90;;
72920;SDS011;61064;51.654;5.476;2024-01-15T12:54:02;5.93;;;0.93;;
72920;SDS011;61064;51.654;5.476;2024-01-15T12:56:28;3.17;;;0.80;;
72920;SDS011;61064;51.654;5.476;2024-01-15T12:58:53;4.57;;;0.80;;
72920;SDS011;61064;51.654;5.476;2024-01-15T13:01:18;4.00;;;0.80;;
72920;SDS011;61064;51.654;5.476;2024-01-15T13:03:46;2.42;;;0.60;;
72920;SDS011;61064;51.654;5.476;2024-01-15T13:06:12;4.70;;;0.77;;
72920;SDS011;61064;51.654;5.476;2024-01-15T13:08:37;3.75;;;0.80;;
72920;SDS011;61064;51.654;5.476;2024-01-15T13:11:04;6.35;;;1.05;;
72920;SDS011;61064;51.654;5.476;2024-01-15T13:13:35;4.47;;;0.80;;
72920;SDS011;61064;51.654;5.476;2024-01-15T13:16:00;6.75;;;1.10;;
72920;SDS011;61064;51.654;5.476;2024-01-15T13:18:29;4.80;;;1.40;;
72920;SDS011;61064;51.654;5.476;2024-01-15T13:20:55;5.60;;;1.40;;
72920;SDS011;61064;51.654;5.476;2024-01-15T13:23:21;5.50;;;1.48;;
72920;SDS011;61064;51.654;5.476;2024-01-15T13:25:47;5.55;;;1.90;;
72920;SDS011;61064;51.654;5.476;2024-01-15T13:28:13;6.77;;;1.70;;
72920;SDS011;61064;51.654;5.476;2024-01-15T13:30:38;5.97;;;1.60;;
72920;SDS011;61064;51.654;5.476;2024-01-15T13:33:04;5.95;;;1.70;;
72920;SDS011;61064;51.654;5.476;2024-01-15T13:35:30;4.70;;;1.60;;
72920;SDS011;61064;51.654;5.476;2024-01-15T13:37:55;7.05;;;1.90;;
72920;SDS011;61064;51.654;5.476;2024-01-15T13:40:23;5.55;;;1.77;;
72920;SDS011;61064;51.654;5.476;2024-01-15T13:42:48;6.93;;;1.50;;
72920;SDS011;61064;51.654;5.476;2024-01-15T13:45:17;5.00;;;1.40;;
72920;SDS011;61064;51.654;5.476;2024-01-15T13:47:42;5.63;;;1.50;;
72920;SDS011;61064;51.654;5.476;2024-01-15T13:50:09;7.90;;;1.30;;
72920;SDS011;61064;51.654;5.476;2024-01-15T13:52:34;7.03;;;1.10;;
72920;SDS011;61064;51.654;5.476;2024-01-15T13:55:03;5.85;;;1.00;;
72920;SDS011;61064;51.654;5.476;2024-01-15T13:57:29;4.72;;;0.93;;
72920;SDS011;61064;51.654;5.476;2024-01-15T13:59:56;7.22;;;1.08;;
72920;SDS011;61064;51.654;5.476;2024-01-15T14:02:22;3.67;;;0.97;;
72920;SDS011;61064;51.654;5.476;2024-01-15T14:04:47;3.83;;;0.90;;
72920;SDS011;61064;51.654;5.476;2024-01-15T14:07:13;4.03;;;0.82;;
72920;SDS011;61064;51.654;5.476;2024-01-15T14:09:38;4.50;;;0.90;;
72920;SDS011;61064;51.654;5.476;2024-01-15T14:12:04;6.73;;;0.97;;
72920;SDS011;61064;51.654;5.476;2024-01-15T14:14:31;4.38;;;0.80;;
72920;SDS011;61064;51.654;5.476;2024-01-15T14:16:56;5.67;;;0.80;;
72920;SDS011;61064;51.654;5.476;2024-01-15T14:19:21;4.80;;;0.87;;
72920;SDS011;61064;51.654;5.476;2024-01-15T14:21:52;8.10;;;0.70;;
72920;SDS011;61064;51.654;5.476;2024-01-15T14:24:20;3.78;;;0.90;;
72920;SDS011;61064;51.654;5.476;2024-01-15T14:26:45;4.83;;;0.80;;
72920;SDS011;61064;51.654;5.476;2024-01-15T14:29:14;4.07;;;0.73;;
72920;SDS011;61064;51.654;5.476;2024-01-15T14:31:39;4.28;;;0.80;;
72920;SDS011;61064;51.654;5.476;2024-01-15T14:34:04;5.87;;;0.70;;
72920;SDS011;61064;51.654;5.476;2024-01-15T14:36:30;4.80;;;0.50;;
72920;SDS011;61064;51.654;5.476;2024-01-15T14:38:55;5.97;;;0.47;;
72920;SDS011;61064;51.654;5.476;2024-01-15T14:41:21;6.22;;;0.70;;
72920;SDS011;61064;51.654;5.476;2024-01-15T14:43:46;10.97;;;1.00;;
72920;SDS011;61064;51.654;5.476;2024-01-15T14:46:14;5.40;;;0.80;;
72920;SDS011;61064;51.654;5.476;2024-01-15T14:48:39;6.10;;;0.87;;
72920;SDS011;61064;51.654;5.476;2024-01-15T14:51:05;6.27;;;0.80;;
72920;SDS011;61064;51.654;5.476;2024-01-15T14:53:31;7.28;;;1.27;;
72920;SDS011;61064;51.654;5.476;2024-01-15T14:55:57;9.87;;;1.20;;